Time;durP1;ratioP1;P1;durP2;ratioP2;P2;SDS_P1;SDS_P2;PMS_P1;PMS_P2;Temp;Humidity;BMP_temperature;BMP_pressure;BME280_temperature;BME280_humidity;BME280_pressure;Samples;Min_cycle;Max_cycle;Signal;HPM_P1;HPM_P2
2023/07/21 00:01:49;;;;;;;14.97;14.07;;;15.00;1.00;;;;;;5069111;28;20275;-50
2023/07/21 00:04:14;;;;;;;15.20;14.20;;;15.00;1.00;;;;;;5077207;28;20418;-45
2023/07/21 00:06:44;;;;;;;14.37;13.67;;;15.00;1.00;;;;;;5079458;28;20670;-50
2023/07/21 00:09:11;;;;;;;15.00;14.20;;;15.00;1.00;;;;;;5078644;28;20732;-44
2023/07/21 00:11:38;;;;;;;14.00;13.30;;;15.00;1.00;;;;;;5078467;28;20757;-42
2023/07/21 00:14:07;;;;;;;15.00;14.20;;;15.00;1.00;;;;;;5077967;28;20824;-41
2023/07/21 00:16:33;;;;;;;14.30;13.50;;;15.00;1.00;;;;;;5071202;28;20821;-45
2023/07/21 00:19:01;;;;;;;14.70;13.90;;;15.00;1.00;;;;;;5077266;28;20514;-43
2023/07/21 00:21:28;;;;;;;14.27;13.57;;;15.00;1.00;;;;;;5078973;28;20934;-43
2023/07/21 00:23:54;;;;;;;15.10;14.30;;;15.00;1.00;;;;;;5078758;28;20451;-42
2023/07/21 00:26:20;;;;;;;14.63;13.83;;;15.00;1.00;;;;;;5076387;28;20478;-41
2023/07/21 00:28:46;;;;;;;15.27;14.47;;;15.00;1.00;;;;;;5080414;28;20511;-41
2023/07/21 00:31:11;;;;;;;14.77;13.97;;;14.90;1.00;;;;;;5074779;28;20658;-47
2023/07/21 00:33:37;;;;;;;14.70;13.90;;;14.90;1.00;;;;;;5082999;28;20745;-44
2023/07/21 00:36:04;;;;;;;15.10;14.20;;;14.90;7.90;;;;;;5083219;28;20654;-44
2023/07/21 00:38:30;;;;;;;15.00;14.20;;;14.80;16.80;;;;;;5081763;28;20187;-42
2023/07/21 00:40:56;;;;;;;14.77;13.87;;;14.80;25.20;;;;;;5068327;28;20438;-47
2023/07/21 00:43:22;;;;;;;14.93;14.13;;;14.80;36.20;;;;;;5078587;28;20429;-41
2023/07/21 00:45:48;;;;;;;14.60;13.80;;;14.70;47.10;;;;;;5063847;28;20204;-44
2023/07/21 00:48:16;;;;;;;14.97;14.07;;;14.70;53.90;;;;;;5070660;28;20748;-42
2023/07/21 00:50:51;;;;;;;14.80;14.00;;;14.70;58.90;;;;;;5074941;28;20438;-41
2023/07/21 00:53:18;;;;;;;15.50;14.40;;;14.60;69.50;;;;;;5070106;28;20825;-43
2023/07/21 00:55:47;;;;;;;15.30;14.30;;;14.60;76.20;;;;;;5078777;28;20462;-43
2023/07/21 00:58:14;;;;;;;14.67;13.77;;;14.60;83.30;;;;;;5079841;28;20433;-40
2023/07/21 01:00:40;;;;;;;14.60;13.80;;;14.60;91.60;;;;;;5079728;28;20482;-44
2023/07/21 01:03:10;;;;;;;14.67;13.77;;;14.50;96.60;;;;;;5076430;28;20440;-42
2023/07/21 01:05:41;;;;;;;14.57;13.67;;;14.50;97.30;;;;;;5077832;28;20433;-42
2023/07/21 01:08:07;;;;;;;14.10;13.30;;;14.40;99.60;;;;;;5081397;28;20430;-42
2023/07/21 01:10:35;;;;;;;15.03;14.13;;;14.40;99.90;;;;;;5080853;28;20757;-43
2023/07/21 01:13:01;;;;;;;14.00;13.30;;;14.40;99.90;;;;;;5073985;28;20751;-46
2023/07/21 01:15:28;;;;;;;13.83;13.00;;;14.30;99.90;;;;;;5072105;28;20467;-42
2023/07/21 01:17:55;;;;;;;13.93;13.13;;;14.30;99.90;;;;;;5073728;28;20426;-43
2023/07/21 01:20:24;;;;;;;14.10;13.30;;;14.20;99.90;;;;;;5068074;28;20476;-42
2023/07/21 01:23:05;;;;;;;13.57;12.83;;;14.10;99.90;;;;;;5074053;28;20445;-41
2023/07/21 01:25:32;;;;;;;14.37;13.57;;;14.10;99.90;;;;;;5080217;28;20489;-44
2023/07/21 01:27:59;;;;;;;14.33;13.53;;;14.00;99.90;;;;;;5082131;28;20426;-45
2023/07/21 01:30:26;;;;;;;14.20;13.40;;;14.00;99.90;;;;;;5082278;28;20422;-40
2023/07/21 01:32:54;;;;;;;14.23;13.43;;;13.90;99.90;;;;;;5082353;28;20755;-43
2023/07/21 01:35:21;;;;;;;14.33;13.53;;;13.80;99.90;;;;;;5081590;28;20489;-40
2023/07/21 01:37:49;;;;;;;14.53;13.63;;;13.80;99.90;;;;;;5080204;28;20414;-42
2023/07/21 01:40:16;;;;;;;13.57;12.70;;;13.80;99.90;;;;;;5081052;28;20483;-42
2023/07/21 01:42:43;;;;;;;14.93;14.03;;;13.70;99.90;;;;;;5081031;28;20891;-40
2023/07/21 01:45:09;;;;;;;13.97;13.17;;;13.70;99.90;;;;;;5072193;28;21141;-42
2023/07/21 01:47:35;;;;;;;14.73;13.60;;;13.60;99.90;;;;;;5069396;28;20434;-40
2023/07/21 01:50:03;;;;;;;15.03;14.13;;;13.60;99.90;;;;;;5072229;28;20478;-40
2023/07/21 01:52:31;;;;;;;15.37;14.40;;;13.50;99.90;;;;;;5067317;28;20818;-42
2023/07/21 01:55:04;;;;;;;15.30;14.20;;;13.50;99.90;;;;;;5065939;28;20497;-41
2023/07/21 01:57:34;;;;;;;15.17;14.27;;;13.40;99.90;;;;;;5064809;28;20434;-41
2023/07/21 02:00:02;;;;;;;15.47;14.47;;;13.40;99.90;;;;;;5079058;28;20908;-45
2023/07/21 02:02:29;;;;;;;14.63;13.73;;;13.30;99.90;;;;;;5075105;28;20438;-43
2023/07/21 02:04:54;;;;;;;14.67;13.77;;;13.30;99.90;;;;;;5071737;28;20427;-40
2023/07/21 02:07:20;;;;;;;14.47;13.57;;;13.30;99.90;;;;;;5070272;28;20492;-42
2023/07/21 02:09:50;;;;;;;13.80;12.80;;;13.20;99.90;;;;;;5073916;28;20189;-40
2023/07/21 02:12:16;;;;;;;14.00;13.10;;;13.20;99.90;;;;;;5066366;28;20213;-41
2023/07/21 02:14:41;;;;;;;14.80;13.80;;;13.20;99.90;;;;;;5067399;28;20558;-45
2023/07/21 02:17:07;;;;;;;14.87;13.97;;;13.20;99.90;;;;;;5078339;28;20588;-40
2023/07/21 02:19:33;;;;;;;15.30;14.40;;;13.20;99.90;;;;;;5070503;28;20427;-43
2023/07/21 02:21:59;;;;;;;14.70;13.70;;;13.10;99.90;;;;;;5075842;28;20209;-41
2023/07/21 02:24:25;;;;;;;14.90;13.90;;;13.10;99.90;;;;;;5071738;28;20574;-42
2023/07/21 02:26:51;;;;;;;14.90;13.90;;;13.00;99.90;;;;;;5078170;28;20427;-41
2023/07/21 02:29:17;;;;;;;14.50;13.60;;;13.00;99.90;;;;;;5069596;28;20723;-45
2023/07/21 02:31:43;;;;;;;14.80;13.80;;;12.90;99.90;;;;;;5077881;28;20216;-42
2023/07/21 02:34:08;;;;;;;14.00;13.20;;;12.90;99.90;;;;;;5078122;28;20435;-42
2023/07/21 02:36:34;;;;;;;13.93;13.03;;;12.90;99.90;;;;;;5080482;28;20208;-41
2023/07/21 02:39:00;;;;;;;14.63;13.63;;;12.80;99.90;;;;;;5074875;28;20192;-41
2023/07/21 02:41:26;;;;;;;13.60;12.80;;;12.80;99.90;;;;;;5078803;28;20184;-43
2023/07/21 02:43:51;;;;;;;14.10;13.10;;;12.70;99.90;;;;;;5074803;28;20192;-42
2023/07/21 02:46:17;;;;;;;14.13;13.03;;;12.70;99.90;;;;;;5060111;28;20783;-42
2023/07/21 02:48:43;;;;;;;14.20;13.20;;;12.70;99.90;;;;;;5078452;28;20372;-41
2023/07/21 02:51:09;;;;;;;14.77;13.57;;;12.70;99.90;;;;;;5066921;28;20278;-41
2023/07/21 02:53:34;;;;;;;15.23;13.87;;;12.70;99.90;;;;;;5074666;28;20443;-42
2023/07/21 02:56:03;;;;;;;15.70;14.70;;;12.60;99.90;;;;;;5072970;28;20208;-44
2023/07/21 02:58:29;;;;;;;14.23;13.33;;;12.60;99.90;;;;;;5075954;28;20203;-42
2023/07/21 03:00:55;;;;;;;14.80;13.80;;;12.60;99.90;;;;;;5076784;28;20867;-46
2023/07/21 03:03:23;;;;;;;15.00;14.00;;;12.60;99.90;;;;;;5074977;28;20495;-40
2023/07/21 03:05:48;;;;;;;15.27;14.27;;;12.60;99.90;;;;;;5078555;28;20525;-43
2023/07/21 03:08:14;;;;;;;14.40;13.50;;;12.50;99.90;;;;;;5067730;28;20469;-41
2023/07/21 03:10:40;;;;;;;16.20;15.20;;;12.50;99.90;;;;;;5074673;28;20235;-43
2023/07/21 03:13:05;;;;;;;15.27;14.37;;;12.50;99.90;;;;;;5080300;28;20192;-42
2023/07/21 03:15:31;;;;;;;14.50;13.60;;;12.50;99.90;;;;;;5068814;28;20565;-43
2023/07/21 03:17:57;;;;;;;14.23;13.23;;;12.50;99.90;;;;;;5080211;28;20270;-40
2023/07/21 03:20:23;;;;;;;14.80;13.83;;;12.50;99.90;;;;;;5069759;28;20475;-41
2023/07/21 03:22:48;;;;;;;15.03;13.97;;;12.50;99.90;;;;;;5079461;28;20195;-43
2023/07/21 03:25:14;;;;;;;14.23;13.13;;;12.50;99.90;;;;;;5080115;28;20267;-42
2023/07/21 03:27:40;;;;;;;14.80;13.80;;;12.50;99.90;;;;;;5079843;28;20675;-48
2023/07/21 03:30:09;;;;;;;14.37;13.37;;;12.50;99.90;;;;;;5080147;28;20191;-40
2023/07/21 03:32:35;;;;;;;13.93;13.00;;;12.50;99.90;;;;;;5079959;28;20427;-43
2023/07/21 03:35:04;;;;;;;15.47;14.40;;;12.50;99.90;;;;;;5079956;28;20418;-43
2023/07/21 03:37:31;;;;;;;14.83;13.80;;;12.50;99.90;;;;;;5075257;28;20421;-40
2023/07/21 03:39:57;;;;;;;14.20;13.20;;;12.50;99.90;;;;;;5079590;28;20578;-41
2023/07/21 03:42:23;;;;;;;14.47;13.37;;;12.50;99.90;;;;;;5079100;28;20434;-42
2023/07/21 03:44:49;;;;;;;14.60;13.60;;;12.50;99.90;;;;;;5071374;28;20436;-43
2023/07/21 03:47:19;;;;;;;15.37;14.37;;;12.50;99.90;;;;;;5063384;28;20472;-42
2023/07/21 03:49:46;;;;;;;13.80;12.90;;;12.50;99.90;;;;;;5068301;28;20443;-43
2023/07/21 03:52:12;;;;;;;15.27;14.07;;;12.60;99.90;;;;;;5071352;28;20463;-42
2023/07/21 03:54:37;;;;;;;14.00;12.90;;;12.50;99.90;;;;;;5068893;28;20422;-42
2023/07/21 03:57:03;;;;;;;14.63;13.43;;;12.50;99.90;;;;;;5079521;28;20454;-41
2023/07/21 03:59:29;;;;;;;14.87;13.77;;;12.60;99.90;;;;;;5075856;28;20200;-45
2023/07/21 04:01:55;;;;;;;15.20;14.00;;;12.60;99.90;;;;;;5079384;28;21248;-41
2023/07/21 04:04:21;;;;;;;14.50;13.40;;;12.60;99.90;;;;;;5071805;28;20588;-46
2023/07/21 04:06:46;;;;;;;14.90;13.90;;;12.60;99.90;;;;;;5079466;28;20427;-42
2023/07/21 04:09:13;;;;;;;15.00;13.90;;;12.60;99.90;;;;;;5077627;28;20793;-43
2023/07/21 04:11:39;;;;;;;16.13;14.93;;;12.60;99.90;;;;;;5076599;28;20189;-42
2023/07/21 04:14:05;;;;;;;15.07;13.87;;;12.70;99.90;;;;;;5068788;28;20762;-41
2023/07/21 04:16:31;;;;;;;15.63;14.30;;;12.70;99.90;;;;;;5059727;28;20953;-43
2023/07/21 04:18:56;;;;;;;14.83;13.73;;;12.70;99.90;;;;;;5061362;28;20185;-48
2023/07/21 04:21:22;;;;;;;15.20;13.90;;;12.70;99.90;;;;;;5060918;28;20512;-42
2023/07/21 04:23:48;;;;;;;15.80;14.70;;;12.70;99.90;;;;;;5068656;28;20422;-43
2023/07/21 04:26:17;;;;;;;15.07;13.97;;;12.80;99.90;;;;;;5077815;28;20270;-41
2023/07/21 04:28:43;;;;;;;15.40;14.30;;;12.80;99.90;;;;;;5079189;28;20416;-42
2023/07/21 04:31:10;;;;;;;14.77;13.67;;;12.80;99.90;;;;;;5072336;28;20442;-42
2023/07/21 04:33:36;;;;;;;15.67;14.47;;;12.80;99.90;;;;;;5077217;28;20997;-42
2023/07/21 04:36:02;;;;;;;15.57;14.47;;;12.90;99.90;;;;;;5078727;28;20454;-43
2023/07/21 04:38:28;;;;;;;14.50;13.40;;;12.90;99.90;;;;;;5063609;28;20185;-41
2023/07/21 04:40:54;;;;;;;15.30;14.20;;;13.00;99.90;;;;;;5071146;28;20423;-44
2023/07/21 04:43:19;;;;;;;15.80;14.30;;;13.10;99.90;;;;;;5068337;28;21013;-41
2023/07/21 04:45:45;;;;;;;15.10;13.83;;;13.10;99.90;;;;;;5059302;28;20193;-41
2023/07/21 04:48:11;;;;;;;15.83;14.63;;;13.20;99.90;;;;;;5073295;28;20199;-45
2023/07/21 04:50:36;;;;;;;13.97;13.07;;;13.20;99.90;;;;;;5077898;28;20192;-41
2023/07/21 04:53:02;;;;;;;15.10;14.00;;;13.30;99.90;;;;;;5065808;28;20203;-41
2023/07/21 04:55:28;;;;;;;15.63;14.53;;;13.40;99.90;;;;;;5072994;28;20216;-43
2023/07/21 04:57:53;;;;;;;14.43;13.53;;;13.50;99.90;;;;;;5077602;28;20279;-44
2023/07/21 05:00:19;;;;;;;15.60;14.53;;;13.60;99.90;;;;;;5065211;28;20415;-41
2023/07/21 05:02:45;;;;;;;14.83;13.87;;;13.70;99.90;;;;;;5078340;28;20259;-41
2023/07/21 05:05:11;;;;;;;14.30;13.40;;;13.70;99.90;;;;;;5072811;28;20857;-43
2023/07/21 05:07:37;;;;;;;14.87;13.97;;;13.80;99.90;;;;;;5074817;28;20429;-40
2023/07/21 05:10:03;;;;;;;14.60;13.70;;;13.90;99.90;;;;;;5078599;28;20185;-42
2023/07/21 05:12:32;;;;;;;14.00;13.10;;;13.90;99.90;;;;;;5076816;28;20427;-48
2023/07/21 05:14:58;;;;;;;14.77;13.87;;;14.00;99.90;;;;;;5058856;28;20444;-42
2023/07/21 05:17:23;;;;;;;14.10;13.20;;;14.20;99.90;;;;;;5072480;28;20866;-41
2023/07/21 05:19:49;;;;;;;13.60;12.80;;;14.20;99.90;;;;;;5080762;28;20729;-42
2023/07/21 05:22:14;;;;;;;15.00;14.00;;;14.30;99.90;;;;;;5082242;28;20187;-43
2023/07/21 05:24:40;;;;;;;14.33;13.53;;;14.40;99.90;;;;;;5081962;28;20787;-41
2023/07/21 05:27:07;;;;;;;14.70;13.90;;;14.50;99.90;;;;;;5070764;28;20196;-44
2023/07/21 05:29:34;;;;;;;14.00;13.20;;;14.70;99.90;;;;;;5080562;28;20193;-42
2023/07/21 05:32:01;;;;;;;15.10;14.20;;;14.80;99.90;;;;;;5078768;28;20448;-43
2023/07/21 05:34:26;;;;;;;15.57;14.67;;;14.90;99.90;;;;;;5082264;28;20427;-43
2023/07/21 05:36:52;;;;;;;14.70;13.90;;;15.00;99.90;;;;;;5078959;28;21046;-44
2023/07/21 05:39:17;;;;;;;14.33;13.53;;;15.20;85.60;;;;;;5082183;28;20186;-41
2023/07/21 05:41:43;;;;;;;13.97;13.17;;;15.20;57.50;;;;;;5072617;28;20184;-41
2023/07/21 05:44:09;;;;;;;14.30;13.50;;;15.40;59.40;;;;;;5078566;28;20195;-42
2023/07/21 05:46:38;;;;;;;13.70;12.90;;;15.50;42.40;;;;;;5079662;28;20185;-41
2023/07/21 05:49:05;;;;;;;12.63;11.93;;;15.60;26.90;;;;;;5076738;28;20173;-45
2023/07/21 05:51:31;;;;;;;14.10;13.20;;;15.80;24.90;;;;;;5073493;28;20482;-41
2023/07/21 05:53:57;;;;;;;13.57;12.73;;;15.90;19.40;;;;;;5063296;28;20518;-44
2023/07/21 05:56:23;;;;;;;13.70;12.80;;;16.00;5.10;;;;;;5081472;28;20450;-43
2023/07/21 05:58:48;;;;;;;12.70;11.90;;;16.10;1.00;;;;;;5081721;28;20663;-42
2023/07/21 06:01:14;;;;;;;13.60;12.90;;;16.10;1.00;;;;;;5069337;28;20180;-46
2023/07/21 06:03:40;;;;;;;13.27;12.57;;;16.30;1.00;;;;;;5076047;28;20415;-43
2023/07/21 06:06:05;;;;;;;14.23;13.40;;;16.40;1.00;;;;;;5082176;28;20596;-42
2023/07/21 06:08:31;;;;;;;13.73;12.93;;;16.40;1.00;;;;;;5081304;28;20180;-45
2023/07/21 06:10:59;;;;;;;14.23;13.27;;;16.60;1.00;;;;;;5076540;28;20191;-44
2023/07/21 06:13:25;;;;;;;13.80;13.10;;;16.60;1.00;;;;;;5064127;28;20457;-46
2023/07/21 06:15:50;;;;;;;13.60;12.90;;;16.70;1.00;;;;;;5079232;28;20458;-42
2023/07/21 06:18:16;;;;;;;12.83;12.13;;;16.70;1.00;;;;;;5081685;28;20291;-41
2023/07/21 06:20:41;;;;;;;13.77;12.97;;;16.70;1.00;;;;;;5080375;28;20184;-41
2023/07/21 06:23:07;;;;;;;13.90;13.10;;;16.70;1.00;;;;;;5081124;28;20643;-41
2023/07/21 06:25:33;;;;;;;13.03;12.23;;;16.80;1.00;;;;;;5080970;28;20236;-42
2023/07/21 06:27:58;;;;;;;13.90;13.10;;;16.80;1.00;;;;;;5079166;28;20188;-43
2023/07/21 06:30:24;;;;;;;13.40;12.77;;;16.70;1.00;;;;;;5081308;28;20208;-41
2023/07/21 06:32:49;;;;;;;13.73;13.03;;;16.70;1.00;;;;;;5081032;28;20261;-43
2023/07/21 06:35:15;;;;;;;13.87;12.77;;;16.70;1.00;;;;;;5080851;28;20736;-41
2023/07/21 06:37:41;;;;;;;13.27;12.57;;;16.80;1.00;;;;;;5080754;28;20184;-40
2023/07/21 06:40:09;;;;;;;13.57;12.87;;;16.90;1.00;;;;;;5080632;28;20194;-43
2023/07/21 06:42:38;;;;;;;14.30;13.60;;;17.00;1.00;;;;;;5067031;28;20172;-43
2023/07/21 06:45:05;;;;;;;13.30;12.70;;;17.00;1.00;;;;;;5080948;28;20414;-42
2023/07/21 06:47:30;;;;;;;12.77;12.17;;;16.90;1.00;;;;;;5075966;28;21000;-46
2023/07/21 06:49:56;;;;;;;13.80;13.10;;;17.10;1.00;;;;;;5078028;28;20429;-45
2023/07/21 06:52:21;;;;;;;13.97;13.27;;;17.20;1.00;;;;;;5068846;28;20682;-45
2023/07/21 06:54:48;;;;;;;13.93;13.23;;;17.30;1.00;;;;;;5065605;28;20192;-45
2023/07/21 06:57:15;;;;;;;12.93;12.27;;;17.30;1.00;;;;;;5079032;28;20693;-44
2023/07/21 06:59:40;;;;;;;12.93;12.23;;;17.40;1.00;;;;;;5080583;28;20410;-46
2023/07/21 07:02:06;;;;;;;12.97;12.27;;;17.50;1.00;;;;;;5080433;28;20745;-44
2023/07/21 07:04:33;;;;;;;13.40;12.60;;;17.60;1.00;;;;;;5080404;28;20230;-45
2023/07/21 07:06:58;;;;;;;13.70;13.00;;;17.70;1.00;;;;;;5080430;28;20177;-45
2023/07/21 07:09:25;;;;;;;14.00;13.20;;;17.70;1.00;;;;;;5080118;28;20415;-44
2023/07/21 07:11:51;;;;;;;12.93;12.27;;;17.70;1.00;;;;;;5080190;28;20206;-41
2023/07/21 07:14:16;;;;;;;13.90;13.10;;;17.80;1.00;;;;;;5072910;28;20418;-46
2023/07/21 07:16:43;;;;;;;13.73;12.93;;;17.90;1.00;;;;;;5080508;28;20458;-46
2023/07/21 07:19:08;;;;;;;13.33;12.70;;;18.00;1.00;;;;;;5080029;28;20316;-46
2023/07/21 07:21:34;;;;;;;13.37;12.67;;;18.10;1.00;;;;;;5077145;28;20424;-43
2023/07/21 07:23:59;;;;;;;12.80;12.20;;;18.30;1.00;;;;;;5073014;28;20203;-41
2023/07/21 07:26:26;;;;;;;13.90;13.10;;;18.40;1.00;;;;;;5079568;28;20196;-51
2023/07/21 07:28:52;;;;;;;13.50;12.80;;;18.50;1.00;;;;;;5079347;28;20269;-43
2023/07/21 07:31:17;;;;;;;12.80;12.10;;;18.60;1.00;;;;;;5079860;28;20451;-42
2023/07/21 07:33:44;;;;;;;12.37;11.77;;;18.60;1.00;;;;;;5079867;28;20185;-46
2023/07/21 07:36:11;;;;;;;13.30;12.60;;;18.70;1.00;;;;;;5079758;28;20679;-42
2023/07/21 07:38:38;;;;;;;13.67;12.50;;;18.80;1.00;;;;;;5077651;28;20758;-44
2023/07/21 07:41:08;;;;;;;12.70;12.00;;;19.10;1.00;;;;;;5071541;28;20996;-43
2023/07/21 07:43:34;;;;;;;13.40;12.80;;;19.30;1.00;;;;;;5059729;28;20854;-45
2023/07/21 07:46:00;;;;;;;11.87;11.27;;;19.40;1.00;;;;;;5079799;28;20426;-43
2023/07/21 07:48:26;;;;;;;13.47;12.77;;;19.60;1.00;;;;;;5077087;28;20492;-44
2023/07/21 07:50:52;;;;;;;12.83;12.23;;;19.80;99.90;;;;;;5065226;28;20889;-44
2023/07/21 07:53:17;;;;;;;12.17;11.57;;;20.00;67.50;;;;;;5073365;28;20196;-47
2023/07/21 07:55:44;;;;;;;12.40;11.80;;;20.20;1.00;;;;;;5074353;28;20211;-46
2023/07/21 07:58:10;;;;;;;12.40;11.90;;;20.50;1.00;;;;;;5074620;28;20267;-41
2023/07/21 08:00:38;;;;;;;11.80;11.30;;;20.60;1.00;;;;;;5079617;28;20406;-42
2023/07/21 08:03:07;;;;;;;12.10;11.50;;;20.90;99.90;;;;;;5079147;28;20413;-43
2023/07/21 08:05:34;;;;;;;11.33;10.83;;;21.00;99.90;;;;;;5079509;28;20683;-41
2023/07/21 08:08:02;;;;;;;11.23;10.73;;;21.20;1.00;;;;;;5079054;28;20418;-41
2023/07/21 08:10:28;;;;;;;11.53;11.03;;;21.40;1.00;;;;;;5074731;28;20959;-43
2023/07/21 08:12:55;;;;;;;12.27;11.67;;;21.60;1.00;;;;;;5076211;28;20414;-42
2023/07/21 08:15:21;;;;;;;11.10;10.60;;;21.80;1.00;;;;;;5079190;28;20691;-42
2023/07/21 08:17:47;;;;;;;11.83;11.33;;;22.00;1.00;;;;;;5066284;28;20497;-42
2023/07/21 08:20:13;;;;;;;10.80;10.30;;;22.10;1.00;;;;;;5078881;28;20478;-43
2023/07/21 08:22:38;;;;;;;12.03;11.43;;;22.50;1.00;;;;;;5079102;28;21038;-44
2023/07/21 08:25:05;;;;;;;11.93;11.43;;;22.60;1.00;;;;;;5079275;28;20240;-41
2023/07/21 08:27:34;;;;;;;12.53;11.90;;;22.60;1.00;;;;;;5079018;28;20354;-43
2023/07/21 08:29:59;;;;;;;11.20;10.70;;;22.70;1.00;;;;;;5078837;28;20561;-42
2023/07/21 08:32:25;;;;;;;10.70;10.20;;;22.70;1.00;;;;;;5078467;28;20468;-41
2023/07/21 08:34:51;;;;;;;12.23;11.67;;;22.90;1.00;;;;;;5078904;28;20185;-42
2023/07/21 08:37:16;;;;;;;12.57;11.97;;;23.00;1.00;;;;;;5074856;28;20200;-44
2023/07/21 08:39:42;;;;;;;12.47;11.87;;;22.90;1.00;;;;;;5078612;28;20181;-43
2023/07/21 08:42:12;;;;;;;12.37;11.87;;;23.10;1.00;;;;;;5067198;28;20532;-41
2023/07/21 08:44:38;;;;;;;12.23;11.47;;;23.20;1.00;;;;;;5071108;28;20722;-45
2023/07/21 08:47:04;;;;;;;12.07;11.47;;;23.40;1.00;;;;;;5076197;28;20426;-42
2023/07/21 08:49:30;;;;;;;12.57;11.90;;;23.50;99.90;;;;;;5078337;28;20463;-47
2023/07/21 08:51:56;;;;;;;11.97;11.40;;;23.70;99.90;;;;;;5074078;28;20418;-43
2023/07/21 08:54:21;;;;;;;11.30;10.80;;;23.90;99.90;;;;;;5080950;28;20219;-43
2023/07/21 08:56:47;;;;;;;11.63;11.13;;;24.20;99.90;;;;;;5079662;28;20842;-43
2023/07/21 08:59:13;;;;;;;10.60;10.20;;;24.40;99.90;;;;;;5072781;28;20498;-41
2023/07/21 09:01:38;;;;;;;10.63;10.13;;;24.60;99.90;;;;;;5082859;28;20603;-45
2023/07/21 09:04:25;;;;;;;10.13;9.73;;;24.80;99.90;;;;;;5082642;28;20173;-42
2023/07/21 09:06:51;;;;;;;11.60;11.10;;;25.10;99.90;;;;;;5083236;28;20683;-44
2023/07/21 09:09:22;;;;;;;10.47;9.97;;;25.10;99.90;;;;;;5082698;28;20738;-43
2023/07/21 09:11:48;;;;;;;11.43;10.90;;;25.20;99.90;;;;;;5078003;28;20534;-43
2023/07/21 09:14:15;;;;;;;11.60;11.10;;;25.30;99.90;;;;;;5082159;28;20468;-44
2023/07/21 09:16:45;;;;;;;9.97;9.43;;;25.30;99.90;;;;;;5082516;28;20464;-47
2023/07/21 09:19:11;;;;;;;11.00;10.50;;;25.30;99.90;;;;;;5082393;28;20410;-47
2023/07/21 09:21:37;;;;;;;10.33;9.93;;;25.20;99.90;;;;;;5082422;28;20413;-46
2023/07/21 09:24:05;;;;;;;11.23;10.73;;;25.30;99.90;;;;;;5081890;28;20417;-42
2023/07/21 09:26:31;;;;;;;11.47;10.97;;;25.20;99.90;;;;;;5082932;28;20180;-45
2023/07/21 09:28:57;;;;;;;12.03;11.53;;;25.10;99.90;;;;;;5081874;28;20440;-45
2023/07/21 09:31:32;;;;;;;11.60;11.10;;;24.90;99.90;;;;;;5082129;28;20791;-45
2023/07/21 09:34:09;;;;;;;10.87;10.27;;;24.70;99.90;;;;;;5081759;28;20191;-47
2023/07/21 09:36:35;;;;;;;12.20;11.60;;;24.70;99.90;;;;;;5080459;28;20518;-44
2023/07/21 09:39:04;;;;;;;11.53;11.03;;;24.70;99.90;;;;;;5082188;28;20398;-50
2023/07/21 09:41:32;;;;;;;11.60;11.00;;;24.70;99.90;;;;;;5069248;28;21056;-48
2023/07/21 09:43:58;;;;;;;11.57;11.00;;;24.80;99.90;;;;;;5077134;28;20411;-44
2023/07/21 09:46:25;;;;;;;11.70;11.20;;;24.60;99.90;;;;;;5079794;28;20545;-45
2023/07/21 09:48:52;;;;;;;11.03;10.53;;;24.70;99.90;;;;;;5065314;28;20418;-44
2023/07/21 09:51:19;;;;;;;11.00;10.50;;;24.80;99.90;;;;;;5076079;28;20426;-44
2023/07/21 09:53:45;;;;;;;11.40;10.90;;;25.00;99.90;;;;;;5069995;28;20443;-45
2023/07/21 09:56:12;;;;;;;11.07;10.57;;;25.10;99.90;;;;;;5081540;28;20552;-45
2023/07/21 09:59:00;;;;;;;10.90;10.40;;;25.50;99.90;;;;;;5076674;28;20896;-43
2023/07/21 10:01:26;;;;;;;9.93;9.43;;;25.70;99.90;;;;;;5081012;28;20493;-43
2023/07/21 10:03:52;;;;;;;11.87;11.37;;;26.00;99.90;;;;;;5081531;28;20944;-42
2023/07/21 10:06:19;;;;;;;11.67;11.07;;;26.10;99.90;;;;;;5081253;28;20184;-47
2023/07/21 10:08:45;;;;;;;11.90;11.40;;;26.40;99.90;;;;;;5081711;28;20418;-49
2023/07/21 10:11:12;;;;;;;11.80;11.20;;;26.80;99.90;;;;;;5066079;28;20918;-43
2023/07/21 10:13:47;;;;;;;11.47;10.97;;;27.20;99.90;;;;;;5065600;28;20442;-42
2023/07/21 10:16:13;;;;;;;11.00;10.50;;;27.30;99.90;;;;;;5070660;28;20473;-42
2023/07/21 10:19:03;;;;;;;10.50;10.00;;;27.30;99.90;;;;;;5081294;28;20407;-44
2023/07/21 10:21:31;;;;;;;11.57;11.07;;;27.40;99.90;;;;;;5080677;28;20488;-51
2023/07/21 10:24:01;;;;;;;11.60;11.10;;;27.50;99.90;;;;;;5068145;28;20942;-52
2023/07/21 10:26:29;;;;;;;11.43;10.93;;;27.40;99.90;;;;;;5069252;28;20485;-47
2023/07/21 10:28:54;;;;;;;12.13;11.63;;;27.30;99.90;;;;;;5080170;28;20922;-54
2023/07/21 10:31:25;;;;;;;10.97;10.47;;;27.30;99.90;;;;;;5068447;28;20424;-49
2023/07/21 10:34:08;;;;;;;11.70;11.00;;;27.20;99.90;;;;;;5081452;28;20181;-53
2023/07/21 10:37:05;;;;;;;11.80;11.20;;;27.00;99.90;;;;;;5080504;28;20481;-53
2023/07/21 10:39:32;;;;;;;12.03;11.13;;;27.00;99.90;;;;;;5080970;28;20422;-51
2023/07/21 10:42:03;;;;;;;12.50;11.90;;;27.00;99.90;;;;;;5068111;28;20784;-49
2023/07/21 10:44:37;;;;;;;11.87;11.37;;;26.90;99.90;;;;;;5078970;28;20521;-53
2023/07/21 10:47:05;;;;;;;11.40;10.90;;;26.90;99.90;;;;;;5078306;28;20513;-54
2023/07/21 10:49:31;;;;;;;12.30;11.80;;;26.90;99.90;;;;;;5080556;28;20457;-55
2023/07/21 10:51:57;;;;;;;11.53;11.03;;;27.00;99.90;;;;;;5072714;28;20909;-50
2023/07/21 10:54:23;;;;;;;12.17;11.57;;;27.00;99.90;;;;;;5077213;28;20422;-52
2023/07/21 10:56:51;;;;;;;11.63;11.03;;;27.00;99.90;;;;;;5066586;28;20256;-52
2023/07/21 10:59:18;;;;;;;11.93;11.43;;;26.90;99.90;;;;;;5080587;28;20253;-53
2023/07/21 11:01:45;;;;;;;12.70;12.00;;;26.90;99.90;;;;;;5080785;28;20444;-53
2023/07/21 11:04:15;;;;;;;12.40;11.80;;;26.90;99.90;;;;;;5071058;28;20558;-47
2023/07/21 11:06:42;;;;;;;11.97;11.47;;;26.80;99.90;;;;;;5079083;28;20422;-53
2023/07/21 11:09:11;;;;;;;12.83;12.30;;;26.60;99.90;;;;;;5080284;28;20419;-55
2023/07/21 11:11:41;;;;;;;13.10;12.50;;;26.30;99.90;;;;;;5073916;28;20443;-51
2023/07/21 11:14:20;;;;;;;13.17;12.47;;;25.90;99.90;;;;;;5079458;28;21062;-52
2023/07/21 11:16:56;;;;;;;12.10;11.50;;;25.80;99.90;;;;;;5079929;28;20497;-50
2023/07/21 11:19:24;;;;;;;12.90;12.20;;;25.70;99.90;;;;;;5080473;28;20405;-53
2023/07/21 11:21:50;;;;;;;13.47;12.77;;;25.60;99.90;;;;;;5080122;28;20421;-51
2023/07/21 11:24:17;;;;;;;13.30;12.40;;;25.30;99.90;;;;;;5080132;28;20581;-52
2023/07/21 11:26:44;;;;;;;14.00;13.30;;;25.20;99.90;;;;;;5075762;28;20507;-53
2023/07/21 11:29:10;;;;;;;13.40;12.80;;;24.90;99.90;;;;;;5080433;28;21233;-50
2023/07/21 11:31:37;;;;;;;13.30;12.43;;;24.60;99.90;;;;;;5079824;28;20429;-51
2023/07/21 11:34:03;;;;;;;13.03;12.23;;;24.30;99.90;;;;;;5080159;28;20200;-49
2023/07/21 11:36:33;;;;;;;12.83;12.23;;;23.90;99.90;;;;;;5079662;28;20458;-47
2023/07/21 11:39:03;;;;;;;13.03;12.33;;;23.60;99.90;;;;;;5078820;28;20414;-52
2023/07/21 11:41:41;;;;;;;14.43;13.67;;;23.50;99.90;;;;;;5080103;28;20494;-53
2023/07/21 11:44:20;;;;;;;13.50;12.60;;;23.30;99.90;;;;;;5079755;28;20426;-48
2023/07/21 11:47:09;;;;;;;12.90;12.17;;;23.10;99.90;;;;;;5076854;28;20434;-51
2023/07/21 11:49:42;;;;;;;13.70;13.00;;;23.00;99.90;;;;;;5078293;28;20417;-50
2023/07/21 11:52:09;;;;;;;13.57;12.87;;;22.90;99.90;;;;;;5066702;28;20419;-48
2023/07/21 11:54:45;;;;;;;13.00;12.40;;;22.80;99.90;;;;;;5066821;28;20799;-48
2023/07/21 11:57:12;;;;;;;13.27;12.47;;;22.80;99.90;;;;;;5071816;28;20596;-51
2023/07/21 11:59:38;;;;;;;14.30;13.50;;;22.70;99.90;;;;;;5079872;28;20583;-46
2023/07/21 12:02:06;;;;;;;14.30;13.60;;;22.60;99.90;;;;;;5068204;28;20659;-51
2023/07/21 12:04:33;;;;;;;15.60;14.80;;;22.40;99.90;;;;;;5079777;28;20422;-50
2023/07/21 12:06:59;;;;;;;16.80;16.00;;;22.20;1.00;;;;;;5079625;28;20475;-51
2023/07/21 12:09:26;;;;;;;18.90;17.80;;;21.90;1.00;;;;;;5079419;28;20529;-49
2023/07/21 12:11:55;;;;;;;19.57;18.57;;;21.60;1.00;;;;;;5079513;28;20411;-47
2023/07/21 12:14:23;;;;;;;19.90;18.80;;;21.20;1.00;;;;;;5079637;28;20523;-51
2023/07/21 12:16:50;;;;;;;18.43;17.37;;;20.80;60.80;;;;;;5066154;28;20585;-49
2023/07/21 12:19:16;;;;;;;19.30;18.20;;;20.50;1.00;;;;;;5079193;28;20406;-46
2023/07/21 12:21:41;;;;;;;19.43;18.23;;;20.10;1.00;;;;;;5079281;28;20429;-48
2023/07/21 12:24:11;;;;;;;20.10;18.90;;;19.80;1.00;;;;;;5078705;28;20230;-52
2023/07/21 12:26:37;;;;;;;20.47;19.37;;;19.70;99.90;;;;;;5078993;28;20442;-52
2023/07/21 12:29:02;;;;;;;19.60;18.50;;;19.60;1.00;;;;;;5079144;28;20525;-49
2023/07/21 12:31:28;;;;;;;19.90;18.80;;;19.40;99.90;;;;;;5073453;28;20279;-46